Time;durP1;ratioP1;P1;durP2;ratioP2;P2;SDS_P1;SDS_P2;PMS_P1;PMS_P2;Temp;Humidity;BMP_temperature;BMP_pressure;BME280_temperature;BME280_humidity;BME280_pressure;Samples;Min_cycle;Max_cycle;Signal;HPM_P1;HPM_P2
2023/01/13 00:01:45;;;;;;;5.10;2.50;;;;;;;8.77;73.04;99781.20;129407;1257;114691;-66
2023/01/13 00:04:50;;;;;;;;;;;;;;;8.77;73.00;99782.94;128695;1257;113604;-63
2023/01/13 00:07:56;;;;;;;4.70;2.50;;;;;;;8.77;73.16;99777.09;128481;1263;113216;-64
2023/01/13 00:11:08;;;;;;;4.10;2.60;;;;;;;8.76;73.12;99765.73;128319;1258;130665;-65
2023/01/13 00:14:17;;;;;;;5.00;2.30;;;;;;;8.76;73.18;99763.59;128597;1258;114043;-73
2023/01/13 00:17:28;;;;;;;3.00;1.80;;;;;;;8.76;73.19;99764.46;128538;1258;115434;-68
2023/01/13 00:20:34;;;;;;;;;;;;;;;8.77;73.35;99759.46;128689;1263;113325;-66
2023/01/13 00:23:41;;;;;;;4.70;2.30;;;;;;;8.76;73.65;99757.52;128645;1262;113320;-65
2023/01/13 00:26:46;;;;;;;3.80;2.10;;;;;;;8.76;73.35;99759.14;128868;1257;128065;-69
2023/01/13 00:29:51;;;;;;;3.50;2.00;;;;;;;8.76;73.59;99760.02;129212;1257;114775;-71
2023/01/13 00:33:02;;;;;;;4.50;2.40;;;;;;;8.75;73.40;99758.11;128580;1257;113247;-68
2023/01/13 00:36:08;;;;;;;6.00;2.70;;;;;;;8.75;73.69;99762.91;128611;1257;113238;-70
2023/01/13 00:39:14;;;;;;;4.40;2.10;;;;;;;8.75;73.58;99758.66;128442;1261;113270;-67
2023/01/13 00:45:44;;;;;;;6.10;3.50;;;;;;;8.71;73.96;99751.91;128073;1257;114707;-61
2023/01/13 00:48:50;;;;;;;3.90;2.30;;;;;;;8.69;73.92;99748.64;128192;1260;113336;-63
2023/01/13 00:51:54;;;;;;;5.70;2.30;;;;;;;8.68;74.04;99747.05;128486;1257;113915;-62
2023/01/13 00:55:01;;;;;;;4.80;3.00;;;;;;;8.66;74.17;99742.91;128358;1257;113243;-63
2023/01/13 00:58:06;;;;;;;3.70;2.50;;;;;;;8.66;74.02;99750.35;129049;1257;128870;-62
2023/01/13 01:01:16;;;;;;;3.70;2.30;;;;;;;8.65;74.12;99744.35;128212;1261;114775;-61
2023/01/13 01:04:21;;;;;;;6.00;2.60;;;;;;;8.64;74.49;99744.05;128225;1257;113454;-62
2023/01/13 01:07:26;;;;;;;4.30;2.50;;;;;;;8.63;74.24;99742.85;128352;1257;113921;-62
2023/01/13 01:10:33;;;;;;;4.60;2.70;;;;;;;8.62;74.43;99745.94;128342;1257;114892;-62
2023/01/13 01:13:38;;;;;;;3.80;2.50;;;;;;;8.61;74.42;99741.36;128200;1271;127683;-62
2023/01/13 01:16:44;;;;;;;7.40;2.80;;;;;;;8.61;74.60;99733.89;128247;1257;114831;-61
2023/01/13 01:19:49;;;;;;;3.60;2.10;;;;;;;8.61;74.73;99726.75;128294;1257;113311;-61
2023/01/13 01:22:54;;;;;;;4.00;2.60;;;;;;;8.62;74.61;99726.04;128281;1264;113339;-63
2023/01/13 01:26:08;;;;;;;4.10;2.40;;;;;;;8.61;74.79;99725.15;128258;1257;113283;-61
2023/01/13 01:29:15;;;;;;;3.90;2.20;;;;;;;8.60;74.62;99723.96;128293;1280;128250;-63
2023/01/13 01:32:18;;;;;;;3.40;2.30;;;;;;;8.60;74.72;99718.48;128287;1257;114771;-62
2023/01/13 01:35:25;;;;;;;4.90;2.40;;;;;;;8.59;74.70;99716.19;128365;1258;113306;-61
2023/01/13 01:38:30;;;;;;;3.70;2.50;;;;;;;8.59;74.65;99714.27;128245;1262;113909;-61
2023/01/13 01:41:35;;;;;;;3.10;2.00;;;;;;;8.58;74.51;99706.27;128227;1264;113337;-61
2023/01/13 01:44:43;;;;;;;3.80;2.10;;;;;;;8.60;74.63;99697.29;128239;1270;127834;-62
2023/01/13 01:47:52;;;;;;;5.10;2.20;;;;;;;8.60;74.81;99694.63;128279;1257;115387;-61
2023/01/13 01:50:57;;;;;;;3.00;2.20;;;;;;;8.60;74.57;99687.52;128287;1257;113451;-62
2023/01/13 01:54:03;;;;;;;6.10;2.30;;;;;;;8.60;74.82;99683.39;128323;1257;113283;-61
2023/01/13 01:57:10;;;;;;;3.60;2.20;;;;;;;8.61;74.53;99679.45;128451;1257;113263;-61
2023/01/13 02:00:21;;;;;;;3.20;2.10;;;;;;;8.60;74.19;99680.52;126892;1257;2196970;-62
2023/01/13 02:03:26;;;;;;;4.40;2.60;;;;;;;8.61;74.42;99679.93;128107;1257;118047;-61
2023/01/13 02:06:31;;;;;;;2.60;1.60;;;;;;;8.62;74.28;99676.16;128232;1263;113179;-61
2023/01/13 02:09:36;;;;;;;4.40;2.30;;;;;;;8.63;74.24;99672.40;128238;1258;113299;-61
2023/01/13 02:12:41;;;;;;;3.30;2.00;;;;;;;8.65;74.25;99666.44;128290;1264;113155;-72
2023/01/13 02:16:05;;;;;;;3.80;1.90;;;;;;;8.65;74.41;99669.59;128244;1280;127781;-68
2023/01/13 02:19:32;;;;;;;3.10;2.10;;;;;;;8.67;74.12;99660.61;128243;1257;115294;-73
2023/01/13 02:23:01;;;;;;;3.20;2.10;;;;;;;8.67;74.07;99659.00;128202;1258;113255;-71
2023/01/13 02:26:34;;;;;;;3.20;2.40;;;;;;;8.67;74.02;99660.07;128287;1257;113243;-71
2023/01/13 02:34:07;;;;;;;3.50;1.70;;;;;;;8.69;74.09;99656.20;128159;1258;127762;-68
2023/01/13 02:37:19;;;;;;;2.50;1.70;;;;;;;8.70;73.80;99672.02;128323;1258;114734;-72
2023/01/13 02:44:05;;;;;;;3.40;1.90;;;;;;;8.70;73.72;99675.59;128275;1257;113183;-71
2023/01/13 02:44:44;;;;;;;5.50;1.70;;;;;;;8.70;74.09;99668.62;128066;1262;114771;-71
2023/01/13 02:47:50;;;;;;;2.60;1.50;;;;;;;8.71;73.80;99670.74;128441;1262;114721;-71
2023/01/13 02:51:05;;;;;;;3.50;2.30;;;;;;;8.72;73.79;99670.48;127925;1276;129139;-72
2023/01/13 02:54:17;;;;;;;5.30;2.10;;;;;;;8.74;73.75;99671.81;127657;1266;115017;-69
2023/01/13 02:57:24;;;;;;;5.40;2.30;;;;;;;8.76;73.67;99668.00;127537;1267;113471;-73
2023/01/13 03:00:32;;;;;;;4.90;1.80;;;;;;;8.77;73.53;99667.40;128154;1261;113537;-71
2023/01/13 03:03:37;;;;;;;4.20;2.00;;;;;;;8.78;73.50;99668.56;128165;1261;113532;-73
2023/01/13 03:07:05;;;;;;;4.00;2.10;;;;;;;8.80;73.50;99664.21;127983;1273;127802;-71
2023/01/13 03:10:34;;;;;;;3.10;2.10;;;;;;;8.82;73.64;99660.89;127866;1262;116320;-65
2023/01/13 03:14:11;;;;;;;3.60;1.60;;;;;;;8.85;73.43;99659.17;127814;1267;113396;-73
2023/01/13 03:17:26;;;;;;;5.10;1.70;;;;;;;8.87;73.24;99654.05;127758;1258;114061;-71
2023/01/13 03:20:39;;;;;;;4.40;1.70;;;;;;;8.88;73.07;99650.08;128129;1262;113304;-62
2023/01/13 03:23:59;;;;;;;3.60;1.80;;;;;;;8.90;73.14;99646.23;128092;1257;126740;-62
2023/01/13 03:27:24;;;;;;;2.30;1.60;;;;;;;8.92;73.01;99647.19;128086;1264;115244;-63
2023/01/13 03:30:41;;;;;;;2.00;1.30;;;;;;;8.94;72.82;99643.67;128074;1263;113359;-64
2023/01/13 03:33:57;;;;;;;6.20;1.60;;;;;;;8.94;73.18;99649.02;128101;1262;113577;-62
2023/01/13 03:37:05;;;;;;;4.10;1.50;;;;;;;8.95;73.14;99647.40;128418;1264;113389;-67
2023/01/13 03:40:19;;;;;;;2.20;1.50;;;;;;;8.94;73.42;99644.58;128285;1258;127732;-64
2023/01/13 03:47:17;;;;;;;3.40;1.40;;;;;;;8.92;73.30;99643.45;128267;1258;113639;-67
2023/01/13 03:50:39;;;;;;;3.10;1.40;;;;;;;8.90;73.47;99644.63;128242;1257;113216;-65
2023/01/13 03:53:49;;;;;;;2.40;1.40;;;;;;;8.87;73.32;99646.23;128284;1263;113894;-66
2023/01/13 03:56:58;;;;;;;2.10;1.60;;;;;;;8.85;73.30;99643.27;128274;1257;128760;-67
2023/01/13 04:00:04;;;;;;;4.10;1.60;;;;;;;8.84;73.22;99641.08;128042;1258;115429;-69
2023/01/13 04:03:14;;;;;;;4.10;1.80;;;;;;;8.83;73.38;99640.02;128255;1257;113487;-62
2023/01/13 04:06:24;;;;;;;5.10;1.70;;;;;;;8.84;73.36;99639.97;128457;1257;113270;-63
2023/01/13 04:09:51;;;;;;;2.10;1.30;;;;;;;8.84;73.38;99640.17;128065;1257;113912;-64
2023/01/13 04:13:18;;;;;;;3.80;1.80;;;;;;;8.82;73.29;99635.25;128336;1258;129033;-62
2023/01/13 04:16:23;;;;;;;4.00;1.70;;;;;;;8.81;73.20;99638.31;128216;1257;115393;-63
2023/01/13 04:19:28;;;;;;;3.20;1.20;;;;;;;8.82;73.18;99635.97;128076;1257;113146;-62
2023/01/13 04:22:33;;;;;;;2.80;1.30;;;;;;;8.82;73.35;99635.64;128318;1257;113604;-71
2023/01/13 04:25:38;;;;;;;;;;;;;;;8.79;73.14;99631.11;128279;1258;113330;-70
2023/01/13 04:28:43;;;;;;;3.90;1.60;;;;;;;8.77;73.00;99627.00;128155;1258;128662;-62
2023/01/13 04:31:48;;;;;;;3.40;1.50;;;;;;;8.76;73.13;99628.11;128340;1257;116484;-71
2023/01/13 04:34:53;;;;;;;2.70;1.50;;;;;;;8.76;73.11;99630.04;128323;1263;113657;-67
2023/01/13 04:37:59;;;;;;;6.10;1.60;;;;;;;8.76;72.96;99626.49;128162;1267;113626;-63
2023/01/13 04:41:04;;;;;;;3.90;1.50;;;;;;;8.76;73.15;99625.58;128267;1257;115261;-61
2023/01/13 04:44:09;;;;;;;1.90;1.50;;;;;;;8.77;72.92;99620.89;129354;1258;128760;-60
2023/01/13 04:47:13;;;;;;;4.70;1.70;;;;;;;8.77;72.96;99617.53;128228;1261;114716;-61
2023/01/13 04:50:18;;;;;;;4.10;1.70;;;;;;;8.78;73.08;99618.55;128287;1258;113206;-62
2023/01/13 04:53:22;;;;;;;;;;;;;;;8.79;73.01;99616.90;128414;1263;113222;-62
2023/01/13 04:56:26;;;;;;;4.10;1.90;;;;;;;8.78;73.12;99617.11;128907;1257;113314;-62
2023/01/13 04:59:33;;;;;;;5.00;1.70;;;;;;;8.79;73.21;99615.62;128241;1277;127707;-64
2023/01/13 05:02:38;;;;;;;3.30;2.00;;;;;;;8.80;73.05;99613.98;128412;1262;115309;-62
2023/01/13 05:05:43;;;;;;;2.70;1.60;;;;;;;8.80;72.82;99612.71;128233;1262;113451;-62
2023/01/13 05:08:49;;;;;;;5.10;1.90;;;;;;;8.79;72.68;99609.61;128186;1264;113503;-62
2023/01/13 05:18:46;;;;;;;2.70;1.50;;;;;;;8.81;72.58;99608.76;128263;1257;115279;-62
2023/01/13 05:25:37;;;;;;;4.20;1.60;;;;;;;8.85;72.57;99604.30;128098;1258;113300;-64
2023/01/13 05:28:45;;;;;;;4.10;1.40;;;;;;;8.86;72.76;99605.15;128224;1272;115903;-61
2023/01/13 05:31:53;;;;;;;3.00;1.60;;;;;;;8.87;72.61;99607.42;128311;1271;128905;-61
2023/01/13 05:34:58;;;;;;;6.10;1.30;;;;;;;8.88;72.52;99611.27;128198;1258;115204;-72
2023/01/13 05:38:03;;;;;;;2.40;1.50;;;;;;;8.89;72.57;99611.75;128592;1258;113508;-70
2023/01/13 05:44:37;;;;;;;2.80;1.70;;;;;;;8.90;72.43;99613.66;128253;1264;113512;-62
2023/01/13 05:47:42;;;;;;;5.60;1.70;;;;;;;8.90;72.61;99615.05;128348;1270;127697;-64
2023/01/13 05:50:48;;;;;;;2.70;1.30;;;;;;;8.91;72.37;99612.71;128263;1261;115022;-63
2023/01/13 05:53:54;;;;;;;4.00;2.00;;;;;;;8.91;72.38;99614.31;128267;1258;113240;-62
2023/01/13 05:57:02;;;;;;;4.80;2.60;;;;;;;8.91;72.46;99612.87;128240;1263;113239;-65
2023/01/13 06:00:11;;;;;;;3.40;2.60;;;;;;;8.92;72.61;99613.00;128186;1258;113254;-64
2023/01/13 06:03:21;;;;;;;4.40;2.40;;;;;;;8.92;72.36;99615.47;128266;1258;127937;-64
2023/01/13 06:06:28;;;;;;;4.60;1.80;;;;;;;8.92;72.51;99618.00;128511;1257;115258;-64
2023/01/13 06:09:33;;;;;;;6.20;2.50;;;;;;;8.93;72.64;99619.52;128452;1262;113476;-61
2023/01/13 06:12:39;;;;;;;5.00;2.90;;;;;;;8.94;72.69;99618.77;128646;1258;113211;-64
2023/01/13 06:15:43;;;;;;;5.70;2.20;;;;;;;8.93;72.64;99619.91;128350;1258;113175;-61
2023/01/13 06:18:48;;;;;;;3.70;2.40;;;;;;;8.91;72.49;99615.17;128270;1263;127714;-63
2023/01/13 06:21:54;;;;;;;2.10;1.60;;;;;;;8.90;72.73;99612.20;128255;1261;115413;-62
2023/01/13 06:25:01;;;;;;;5.20;2.70;;;;;;;8.90;72.69;99612.23;128240;1264;113675;-64
2023/01/13 06:28:09;;;;;;;2.70;1.90;;;;;;;8.90;72.70;99612.06;128225;1263;113849;-62
2023/01/13 06:31:18;;;;;;;4.40;2.30;;;;;;;8.89;72.78;99612.29;128348;1265;114753;-62
2023/01/13 06:34:25;;;;;;;3.90;2.50;;;;;;;8.88;72.66;99617.85;128260;1264;128808;-62
2023/01/13 06:37:30;;;;;;;5.80;2.50;;;;;;;8.86;73.03;99621.84;128368;1280;115189;-63
2023/01/13 06:40:35;;;;;;;6.10;2.40;;;;;;;8.87;72.85;99615.96;128343;1258;113241;-67
2023/01/13 06:43:39;;;;;;;;;;;;;;;8.86;72.78;99615.13;128447;1263;113508;-64
2023/01/13 06:46:45;;;;;;;6.00;2.10;;;;;;;8.83;72.82;99614.91;128362;1263;113401;-63
2023/01/13 06:49:52;;;;;;;5.40;2.90;;;;;;;8.81;72.91;99614.66;129170;1263;129508;-63
2023/01/13 06:52:57;;;;;;;8.10;2.60;;;;;;;8.79;72.96;99614.57;128485;1260;115217;-60
2023/01/13 06:56:03;;;;;;;5.20;1.90;;;;;;;8.78;72.88;99615.14;128559;1262;113665;-63
2023/01/13 06:59:07;;;;;;;4.50;1.80;;;;;;;8.79;72.87;99614.41;132126;1257;113981;-66
2023/01/13 07:02:12;;;;;;;3.20;1.80;;;;;;;8.78;72.99;99618.70;128488;1258;113600;-63
2023/01/13 07:05:16;;;;;;;;;;;;;;;8.80;72.88;99615.05;128363;1280;127907;-62
2023/01/13 07:08:22;;;;;;;2.60;1.70;;;;;;;8.81;72.84;99617.48;133529;1258;113990;-63
2023/01/13 07:11:29;;;;;;;2.80;1.60;;;;;;;8.84;72.93;99615.23;128453;1262;114754;-64
2023/01/13 07:18:04;;;;;;;4.70;1.80;;;;;;;8.91;73.07;99612.34;128299;1258;115357;-63
2023/01/13 07:21:10;;;;;;;4.70;1.60;;;;;;;8.95;72.77;99611.95;128280;1257;128961;-61
2023/01/13 07:24:16;;;;;;;2.70;1.30;;;;;;;8.99;72.79;99616.93;128279;1258;115233;-62
2023/01/13 07:27:19;;;;;;;;;;;;;;;9.02;72.74;99612.83;128224;1264;115364;-62
2023/01/13 07:30:28;;;;;;;2.70;1.30;;;;;;;9.04;72.69;99612.18;128118;1263;113715;-62
2023/01/13 07:33:33;;;;;;;3.70;1.60;;;;;;;9.08;72.81;99614.65;128445;1263;113430;-62
2023/01/13 07:36:38;;;;;;;4.20;1.40;;;;;;;9.11;72.69;99615.70;128756;1257;127935;-63
2023/01/13 07:39:44;;;;;;;5.50;1.60;;;;;;;9.14;72.67;99615.89;128206;1263;115242;-63
2023/01/13 07:46:18;;;;;;;5.70;2.00;;;;;;;9.22;72.43;99620.30;128057;1258;115343;-62
2023/01/13 07:49:22;;;;;;;3.30;1.60;;;;;;;9.25;72.64;99621.53;128400;1264;113209;-63
2023/01/13 07:52:28;;;;;;;3.20;1.90;;;;;;;9.28;72.61;99622.45;128416;1264;127811;-64
2023/01/13 07:55:32;;;;;;;2.40;2.20;;;;;;;9.30;72.43;99623.41;128295;1263;116473;-61
2023/01/13 07:58:36;;;;;;;;;;;;;;;9.33;72.54;99623.60;128408;1258;113203;-64
2023/01/13 08:01:41;;;;;;;4.80;1.30;;;;;;;9.35;72.41;99621.22;128584;1258;113865;-62
2023/01/13 08:04:45;;;;;;;7.80;1.70;;;;;;;9.36;72.13;99619.02;128264;1257;113216;-64
2023/01/13 08:07:52;;;;;;;4.20;2.10;;;;;;;9.38;72.19;99620.42;128543;1262;129127;-66
2023/01/13 08:11:08;;;;;;;2.60;1.50;;;;;;;9.41;72.13;99620.50;128520;1258;114860;-65
2023/01/13 08:14:13;;;;;;;3.90;1.90;;;;;;;9.44;72.10;99621.76;128549;1257;113443;-64
2023/01/13 08:17:18;;;;;;;5.50;1.80;;;;;;;9.48;72.10;99618.70;128492;1262;113508;-63
2023/01/13 08:20:23;;;;;;;3.10;1.50;;;;;;;9.50;72.10;99621.95;128489;1263;113997;-63
2023/01/13 08:23:28;;;;;;;2.30;1.50;;;;;;;9.53;71.96;99625.69;128299;1264;128168;-64
2023/01/13 08:26:32;;;;;;;4.60;2.40;;;;;;;9.57;71.76;99624.07;128376;1263;114722;-63
2023/01/13 08:29:37;;;;;;;5.20;1.80;;;;;;;9.61;71.81;99621.52;128568;1263;113193;-64
2023/01/13 08:32:45;;;;;;;;;;;;;;;9.67;71.65;99625.80;128387;1260;113407;-63
2023/01/13 08:35:52;;;;;;;2.50;1.60;;;;;;;9.71;71.53;99625.20;128332;1281;114780;-64
2023/01/13 08:39:00;;;;;;;5.60;2.20;;;;;;;9.78;71.63;99628.23;128281;1280;128017;-61
2023/01/13 08:42:06;;;;;;;2.20;1.40;;;;;;;9.85;71.52;99627.63;128275;1265;115046;-66
2023/01/13 08:45:11;;;;;;;5.60;2.00;;;;;;;9.92;71.46;99631.73;128621;1264;113198;-62
2023/01/13 08:48:18;;;;;;;5.60;1.70;;;;;;;9.97;71.32;99626.27;128599;1263;113505;-62
2023/01/13 08:51:24;;;;;;;4.90;2.50;;;;;;;10.02;71.29;99628.08;128208;1281;113457;-63
2023/01/13 08:54:29;;;;;;;6.20;2.30;;;;;;;10.09;71.26;99630.91;128224;1258;129243;-65
2023/01/13 08:57:34;;;;;;;7.70;2.60;;;;;;;10.15;71.01;99632.88;128327;1264;114829;-60
2023/01/13 09:00:39;;;;;;;7.60;2.20;;;;;;;10.19;70.90;99631.19;128347;1258;113267;-63
2023/01/13 09:03:44;;;;;;;3.60;1.90;;;;;;;10.25;70.73;99632.81;128315;1264;113378;-61
2023/01/13 09:06:49;;;;;;;3.80;2.40;;;;;;;10.33;70.73;99634.15;128325;1266;114785;-62
2023/01/13 09:09:55;;;;;;;4.10;2.20;;;;;;;10.40;70.60;99639.66;128325;1258;127719;-63
2023/01/13 09:13:12;;;;;;;4.30;2.50;;;;;;;10.45;70.50;99632.91;128302;1264;115269;-63
2023/01/13 09:16:17;;;;;;;4.90;2.80;;;;;;;10.51;70.47;99639.36;128287;1258;113624;-61
2023/01/13 09:19:21;;;;;;;4.10;2.80;;;;;;;10.54;70.20;99642.75;128349;1262;114001;-62
2023/01/13 09:22:26;;;;;;;8.50;5.50;;;;;;;10.56;70.04;99648.55;128393;1264;114731;-62
2023/01/13 09:25:35;;;;;;;31.20;19.40;;;;;;;10.58;70.18;99650.21;128435;1264;128894;-60
2023/01/13 09:28:43;;;;;;;24.80;18.20;;;;;;;10.56;70.29;99643.73;128771;1258;115287;-62
2023/01/13 09:31:48;;;;;;;5.60;4.00;;;;;;;10.55;70.39;99638.80;128607;1258;113890;-62
2023/01/13 09:35:03;;;;;;;2.40;1.90;;;;;;;10.56;70.60;99638.71;128121;1264;113718;-62
2023/01/13 09:38:12;;;;;;;6.40;4.30;;;;;;;10.62;70.93;99639.43;128218;1281;113414;-62
2023/01/13 09:45:20;;;;;;;5.40;3.20;;;;;;;10.68;70.63;99636.76;128282;1263;115246;-62
2023/01/13 09:48:32;;;;;;;6.30;3.40;;;;;;;10.69;70.19;99636.17;127764;1264;113380;-63
2023/01/13 09:51:41;;;;;;;4.20;2.90;;;;;;;10.73;70.57;99633.08;127660;1262;113368;-63
2023/01/13 09:55:04;;;;;;;11.80;4.10;;;;;;;10.76;70.40;99632.70;127819;1279;113349;-62
2023/01/13 09:58:13;;;;;;;3.90;2.90;;;;;;;10.78;70.43;99632.17;127914;1275;128852;-62
2023/01/13 10:01:48;;;;;;;6.20;2.20;;;;;;;10.82;70.37;99633.06;127854;1268;115340;-63
2023/01/13 10:05:07;;;;;;;4.30;2.60;;;;;;;10.82;70.32;99628.77;127986;1267;114913;-64
2023/01/13 10:08:15;;;;;;;6.80;3.80;;;;;;;10.80;69.99;99629.41;127795;1264;113843;-64
2023/01/13 10:14:58;;;;;;;68.60;49.00;;;;;;;10.82;70.88;99622.14;127872;1264;129306;-65
2023/01/13 10:18:24;;;;;;;11.10;7.40;;;;;;;10.87;71.38;99616.67;128011;1267;115272;-63
2023/01/13 10:21:59;;;;;;;3.90;2.80;;;;;;;10.92;71.31;99608.29;127765;1263;113317;-64
2023/01/13 10:25:19;;;;;;;5.50;2.60;;;;;;;10.98;71.10;99607.96;127900;1266;113345;-63
2023/01/13 10:28:27;;;;;;;5.00;2.90;;;;;;;11.10;71.23;99603.99;127958;1270;113529;-62
2023/01/13 10:31:37;;;;;;;4.50;2.90;;;;;;;11.21;70.77;99603.98;127618;1285;127791;-63
2023/01/13 10:34:49;;;;;;;5.90;3.20;;;;;;;11.30;70.63;99602.15;127906;1277;115295;-63
2023/01/13 10:37:57;;;;;;;15.30;11.80;;;;;;;11.40;70.43;99596.17;128009;1264;113503;-63
2023/01/13 10:41:23;;;;;;;5.60;3.50;;;;;;;11.48;70.46;99587.45;128022;1270;113469;-63
2023/01/13 10:44:29;;;;;;;8.10;6.00;;;;;;;11.59;70.37;99584.58;127781;1268;113600;-63
2023/01/13 10:47:36;;;;;;;13.10;7.90;;;;;;;11.66;69.83;99589.51;127852;1267;128980;-63
2023/01/13 10:50:47;;;;;;;5.50;4.00;;;;;;;11.69;70.10;99584.44;128073;1267;115271;-64
2023/01/13 10:54:16;;;;;;;3.40;2.30;;;;;;;11.72;70.00;99587.70;127785;1264;113427;-64
2023/01/13 10:57:26;;;;;;;6.90;3.00;;;;;;;11.74;69.46;99589.20;127762;1266;113338;-60
2023/01/13 11:00:35;;;;;;;4.60;2.60;;;;;;;11.79;69.88;99584.55;127978;1266;113447;-63
2023/01/13 11:03:46;;;;;;;5.30;2.50;;;;;;;11.84;69.27;99577.19;128417;1263;127711;-61
2023/01/13 11:06:55;;;;;;;5.70;2.70;;;;;;;11.88;69.26;99574.83;128301;1262;114710;-62
2023/01/13 11:10:29;;;;;;;5.10;3.10;;;;;;;11.90;69.13;99571.49;128395;1261;113476;-61
2023/01/13 11:14:31;;;;;;;4.40;2.20;;;;;;;11.94;68.98;99573.70;128405;1263;113284;-62
2023/01/13 11:17:34;;;;;;;51.10;27.20;;;;;;;11.98;68.85;99575.97;128643;1257;115429;-60
2023/01/13 11:20:45;;;;;;;28.00;15.70;;;;;;;12.00;68.40;99572.27;128352;1259;127862;-64
2023/01/13 11:24:05;;;;;;;9.20;6.80;;;;;;;11.93;67.94;99575.23;128160;1263;115232;-58
2023/01/13 11:27:45;;;;;;;11.70;8.60;;;;;;;11.86;68.34;99577.42;128486;1262;114748;-62
2023/01/13 11:31:16;;;;;;;14.50;9.10;;;;;;;11.82;68.14;99573.94;128710;1264;113564;-63
2023/01/13 11:34:40;;;;;;;7.00;4.20;;;;;;;11.78;68.10;99567.41;128218;1257;113531;-61
2023/01/13 11:37:52;;;;;;;18.80;12.50;;;;;;;11.77;68.37;99570.73;128210;1262;127767;-60
2023/01/13 11:42:19;;;;;;;13.30;8.50;;;;;;;11.79;68.59;99569.16;128305;1257;113662;-62
2023/01/13 11:45:27;;;;;;;7.20;3.40;;;;;;;11.87;68.24;99567.73;127619;1267;113315;-61
2023/01/13 11:48:34;;;;;;;9.70;5.80;;;;;;;11.91;68.17;99560.16;128073;1267;113320;-63
2023/01/13 11:51:55;;;;;;;8.20;4.40;;;;;;;11.92;67.61;99558.29;128102;1285;113347;-62
2023/01/13 11:55:07;;;;;;;35.60;23.00;;;;;;;11.90;67.40;99559.13;127682;1269;128756;-63
2023/01/13 11:58:31;;;;;;;6.90;4.50;;;;;;;11.89;67.67;99556.02;128066;1269;115403;-62
2023/01/13 12:01:54;;;;;;;4.50;3.20;;;;;;;11.87;67.49;99559.35;128259;1264;113499;-63
2023/01/13 12:05:22;;;;;;;12.00;5.90;;;;;;;11.89;67.89;99556.86;127762;1265;113533;-62
2023/01/13 12:09:02;;;;;;;8.80;5.50;;;;;;;11.86;67.45;99558.46;127998;1265;114575;-64
2023/01/13 12:12:26;;;;;;;11.10;7.70;;;;;;;11.81;67.04;99557.55;128100;1267;127836;-63
2023/01/13 12:16:09;;;;;;;8.60;6.00;;;;;;;11.75;67.17;99556.52;128078;1283;113984;-63
2023/01/13 12:19:23;;;;;;;11.30;9.00;;;;;;;11.72;67.47;99559.81;128069;1264;113240;-62
2023/01/13 12:22:33;;;;;;;8.50;5.70;;;;;;;11.69;67.01;99557.65;128329;1263;113249;-63
2023/01/13 12:25:43;;;;;;;5.50;3.20;;;;;;;11.70;67.34;99554.17;128358;1262;114752;-64
2023/01/13 12:29:01;;;;;;;4.60;3.20;;;;;;;11.70;67.09;99556.84;128307;1264;127788;-62
2023/01/13 12:32:35;;;;;;;7.70;6.20;;;;;;;11.69;66.95;99560.47;128341;1263;115244;-62
2023/01/13 12:35:50;;;;;;;13.70;8.90;;;;;;;11.68;67.00;99562.52;128332;1257;113309;-61
2023/01/13 12:38:57;;;;;;;9.30;6.10;;;;;;;11.69;67.15;99559.45;128214;1263;113359;-61
2023/01/13 12:45:47;;;;;;;11.20;7.90;;;;;;;11.72;67.12;99549.77;128340;1263;129772;-62
2023/01/13 12:48:56;;;;;;;4.50;2.90;;;;;;;11.75;67.36;99543.27;128264;1261;114493;-62
2023/01/13 12:52:18;;;;;;;3.70;2.70;;;;;;;11.81;67.17;99544.89;128296;1264;114621;-64
2023/01/13 12:55:33;;;;;;;4.70;2.30;;;;;;;11.86;67.18;99550.09;128312;1263;113296;-63
2023/01/13 12:58:40;;;;;;;4.40;2.50;;;;;;;11.87;67.01;99545.34;128368;1263;113359;-63
2023/01/13 13:01:48;;;;;;;7.80;3.90;;;;;;;11.88;66.69;99541.92;128282;1257;126746;-62
2023/01/13 13:04:55;;;;;;;4.10;2.80;;;;;;;11.83;66.60;99553.13;128315;1263;115047;-63
2023/01/13 13:08:08;;;;;;;3.50;2.00;;;;;;;11.80;66.95;99563.38;128372;1258;113220;-64
2023/01/13 13:14:41;;;;;;;4.00;2.30;;;;;;;11.74;67.08;99571.27;128396;1257;113567;-62
2023/01/13 13:18:07;;;;;;;4.10;2.30;;;;;;;11.73;66.79;99571.70;128459;1271;127792;-62
2023/01/13 13:21:15;;;;;;;6.10;2.80;;;;;;;11.74;67.17;99578.99;128318;1263;115205;-63
2023/01/13 13:24:29;;;;;;;8.40;3.10;;;;;;;11.72;66.91;99574.09;128469;1257;113279;-63
2023/01/13 13:27:45;;;;;;;9.80;3.90;;;;;;;11.68;66.83;99571.29;128240;1263;113552;-62
2023/01/13 13:31:24;;;;;;;7.20;3.70;;;;;;;11.65;67.15;99574.17;128210;1263;113476;-62
2023/01/13 13:34:49;;;;;;;12.90;4.80;;;;;;;11.64;66.68;99578.73;128364;1257;127800;-61
2023/01/13 13:48:33;;;;;;;15.80;5.40;;;;;;;11.51;67.18;99582.23;128194;1279;113379;-64
2023/01/13 13:52:02;;;;;;;7.80;4.30;;;;;;;11.50;67.01;99583.20;128210;1258;127931;-64
2023/01/13 13:55:17;;;;;;;10.60;3.90;;;;;;;11.47;67.02;99586.08;128287;1259;115282;-63
2023/01/13 13:58:25;;;;;;;8.20;4.00;;;;;;;11.45;66.86;99586.78;128501;1261;114642;-62
2023/01/13 14:01:32;;;;;;;6.80;3.80;;;;;;;11.40;66.69;99596.38;127760;1258;1293665;-61
2023/01/13 14:04:39;;;;;;;8.00;5.10;;;;;;;11.36;67.01;99603.21;129133;1263;114491;-61
2023/01/13 14:07:45;;;;;;;11.10;5.60;;;;;;;11.33;66.65;99603.80;128496;1281;128705;-63
2023/01/13 14:10:53;;;;;;;10.40;4.60;;;;;;;11.29;67.16;99601.33;128255;1264;115201;-63
2023/01/13 14:14:19;;;;;;;11.60;5.50;;;;;;;11.26;67.18;99602.94;128678;1258;113396;-61
2023/01/13 14:17:32;;;;;;;11.30;3.20;;;;;;;11.22;67.17;99616.95;128164;1257;114733;-61
2023/01/13 14:20:40;;;;;;;5.40;2.60;;;;;;;11.19;67.09;99630.74;128408;1280;113192;-62
2023/01/13 14:23:56;;;;;;;6.60;2.90;;;;;;;11.16;67.37;99635.23;128321;1269;127889;-62
2023/01/13 14:27:16;;;;;;;9.20;4.70;;;;;;;11.11;67.28;99640.70;128552;1263;115558;-62
2023/01/13 14:30:22;;;;;;;5.00;2.80;;;;;;;11.05;67.90;99652.17;128237;1257;113451;-64
2023/01/13 14:33:37;;;;;;;27.30;12.00;;;;;;;10.95;68.21;99660.11;128347;1258;113524;-62
2023/01/13 14:36:49;;;;;;;19.80;10.20;;;;;;;10.83;68.86;99662.98;128274;1257;113237;-62
2023/01/13 14:40:01;;;;;;;53.00;29.70;;;;;;;10.72;69.20;99660.61;128190;1281;128745;-62
2023/01/13 14:43:18;;;;;;;30.10;20.50;;;;;;;10.60;69.44;99663.46;128252;1273;113937;-61
2023/01/13 14:46:24;;;;;;;;;;;;;;;10.47;69.81;99662.97;128378;1257;113240;-63
2023/01/13 14:49:36;;;;;;;7.90;5.10;;;;;;;10.38;69.83;99672.77;128265;1264;113168;-62
2023/01/13 14:52:55;;;;;;;4.70;3.70;;;;;;;10.29;70.17;99674.73;128392;1257;113195;-63
2023/01/13 14:55:59;;;;;;;9.60;8.20;;;;;;;10.22;70.38;99678.33;128416;1258;128062;-64
2023/01/13 14:59:33;;;;;;;15.70;8.70;;;;;;;10.15;70.57;99684.25;128390;1260;114740;-63
2023/01/13 15:02:44;;;;;;;5.20;3.60;;;;;;;10.09;70.89;99690.70;128303;1259;115301;-62
2023/01/13 15:05:54;;;;;;;2.10;1.80;;;;;;;10.04;71.23;99697.55;128441;1258;113163;-63
2023/01/13 15:09:00;;;;;;;2.90;2.50;;;;;;;10.00;71.10;99698.70;128249;1264;113292;-64
2023/01/13 15:12:38;;;;;;;6.90;3.40;;;;;;;9.96;71.36;99693.73;128436;1272;126823;-64
2023/01/13 15:15:44;;;;;;;9.70;6.40;;;;;;;9.92;71.49;99693.64;128174;1285;115290;-62
2023/01/13 15:18:48;;;;;;;11.10;7.20;;;;;;;9.88;71.91;99691.70;128054;1263;113447;-64
2023/01/13 15:21:53;;;;;;;19.80;11.70;;;;;;;9.82;72.04;99692.18;128072;1262;113384;-62
2023/01/13 15:24:58;;;;;;;17.90;9.60;;;;;;;9.77;72.21;99700.00;128053;1285;113898;-64
2023/01/13 15:28:04;;;;;;;19.90;13.60;;;;;;;9.72;72.50;99693.34;127816;1265;127870;-66
2023/01/13 15:31:09;;;;;;;14.90;10.60;;;;;;;9.66;72.84;99696.83;127739;1267;118010;-64
2023/01/13 15:34:16;;;;;;;19.90;14.50;;;;;;;9.62;72.93;99701.89;128148;1262;113357;-62
2023/01/13 15:37:24;;;;;;;21.50;14.20;;;;;;;9.58;73.11;99704.59;128175;1261;113457;-64
2023/01/13 15:40:31;;;;;;;12.80;9.10;;;;;;;9.54;73.28;99707.27;127879;1267;113262;-63
2023/01/13 15:47:08;;;;;;;18.30;11.60;;;;;;;9.43;73.56;99710.04;128163;1266;115269;-62